Time;durP1;ratioP1;P1;durP2;ratioP2;P2;SDS_P1;SDS_P2;PMS_P1;PMS_P2;Temp;Humidity;BMP_temperature;BMP_pressure;BME280_temperature;BME280_humidity;BME280_pressure;Samples;Min_cycle;Max_cycle;Signal;HPM_P1;HPM_P2
2023/03/02 00:01:36;;;;;;;16.40;8.97;;;;;;;5.90;96.38;97494.13;5086618;28;20749;-77
2023/03/02 00:04:06;;;;;;;17.80;9.97;;;;;;;5.86;97.23;97492.50;5068395;28;20279;-77
2023/03/02 00:06:35;;;;;;;21.77;10.63;;;;;;;5.77;97.64;97501.19;5087369;28;20212;-77
2023/03/02 00:09:04;;;;;;;18.10;9.97;;;;;;;5.83;98.17;97492.53;5086135;28;20241;-76
2023/03/02 00:11:34;;;;;;;18.67;10.57;;;;;;;5.90;97.21;97488.97;5087402;28;20184;-76
2023/03/02 00:14:01;;;;;;;19.47;10.57;;;;;;;6.00;96.75;97495.63;5086193;28;20210;-75
2023/03/02 00:16:28;;;;;;;18.87;10.10;;;;;;;5.84;96.12;97471.97;5086993;28;20195;-76
2023/03/02 00:18:55;;;;;;;17.87;9.60;;;;;;;5.95;96.50;97484.59;5087021;28;20282;-75
2023/03/02 00:21:23;;;;;;;18.03;10.20;;;;;;;5.78;96.93;97469.50;5086067;28;20699;-75
2023/03/02 00:23:51;;;;;;;15.67;9.57;;;;;;;5.77;96.57;97463.50;5087308;28;20215;-75
2023/03/02 00:26:18;;;;;;;16.47;10.63;;;;;;;5.79;97.28;97471.16;5085718;28;20602;-75
2023/03/02 00:28:46;;;;;;;16.80;10.40;;;;;;;5.43;98.71;97461.63;5087036;28;20200;-74
2023/03/02 00:31:13;;;;;;;20.27;10.67;;;;;;;5.38;100.00;97458.31;5085725;28;20286;-71
2023/03/02 00:33:41;;;;;;;19.90;10.83;;;;;;;5.49;99.90;97453.78;5068895;28;20195;-72
2023/03/02 00:36:19;;;;;;;19.47;9.87;;;;;;;5.44;99.24;97453.88;5086800;28;20331;-73
2023/03/02 00:38:47;;;;;;;18.53;9.80;;;;;;;5.60;98.97;97454.44;5067685;28;20199;-73
2023/03/02 00:41:15;;;;;;;19.73;10.10;;;;;;;5.62;98.66;97427.00;5068874;28;20248;-73
2023/03/02 00:43:43;;;;;;;19.60;10.90;;;;;;;5.40;99.28;97433.44;5067515;28;20229;-72
2023/03/02 00:46:12;;;;;;;19.07;10.00;;;;;;;5.29;99.47;97432.78;5086989;28;20251;-76
2023/03/02 00:48:39;;;;;;;19.03;10.37;;;;;;;5.34;99.68;97433.53;5086014;28;20197;-73
2023/03/02 00:51:07;;;;;;;20.10;10.97;;;;;;;5.06;100.00;97424.66;5086729;28;20273;-76
2023/03/02 00:53:35;;;;;;;19.77;11.70;;;;;;;5.26;100.00;97430.28;5068527;28;20230;-76
2023/03/02 00:56:03;;;;;;;24.47;11.33;;;;;;;5.10;100.00;97422.03;5067696;28;20202;-74
2023/03/02 00:58:33;;;;;;;21.87;10.60;;;;;;;5.05;100.00;97412.72;5068849;28;20189;-76
2023/03/02 01:01:09;;;;;;;25.17;11.17;;;;;;;5.44;100.00;97417.09;5085481;28;20198;-76
2023/03/02 01:03:41;;;;;;;21.97;11.10;;;;;;;5.59;99.98;97411.63;5071432;28;20214;-74
2023/03/02 01:06:19;;;;;;;22.80;12.30;;;;;;;5.69;99.36;97406.28;5071833;28;20186;-76
2023/03/02 01:08:47;;;;;;;26.23;12.20;;;;;;;5.68;98.46;97417.47;5071619;28;20213;-76
2023/03/02 01:11:17;;;;;;;22.30;10.53;;;;;;;5.68;97.88;97406.31;5072465;28;20190;-73
2023/03/02 01:13:45;;;;;;;22.97;11.00;;;;;;;5.74;97.23;97413.91;5089035;28;20197;-76
2023/03/02 01:16:12;;;;;;;18.57;10.13;;;;;;;5.58;97.30;97399.69;5072678;28;20661;-73
2023/03/02 01:18:39;;;;;;;19.67;10.90;;;;;;;5.64;97.45;97405.56;5089334;28;20325;-76
2023/03/02 01:21:10;;;;;;;15.23;9.87;;;;;;;5.80;95.98;97411.22;5090236;28;20226;-72
2023/03/02 01:23:37;;;;;;;17.10;10.33;;;;;;;5.79;96.33;97404.34;5090084;28;20215;-77
2023/03/02 01:26:05;;;;;;;18.50;10.53;;;;;;;5.91;95.70;97411.88;5089453;28;20191;-77
2023/03/02 01:28:32;;;;;;;18.83;10.40;;;;;;;5.98;94.85;97408.25;5054591;28;20237;-72
2023/03/02 01:31:01;;;;;;;16.20;10.03;;;;;;;5.98;95.41;97409.97;5048482;28;20199;-74
2023/03/02 01:33:28;;;;;;;19.40;10.60;;;;;;;5.95;95.64;97400.63;5049811;28;20183;-72
2023/03/02 01:35:55;;;;;;;18.93;9.43;;;;;;;5.97;95.90;97419.44;5030482;28;20786;-76
2023/03/02 01:38:22;;;;;;;15.70;9.30;;;;;;;6.06;95.46;97423.53;5031955;28;20621;-71
2023/03/02 01:40:50;;;;;;;21.87;10.67;;;;;;;6.09;94.54;97414.03;5049349;28;20180;-75
2023/03/02 01:43:17;;;;;;;19.17;10.47;;;;;;;6.04;94.53;97418.41;5014597;28;20320;-71
2023/03/02 01:45:53;;;;;;;21.43;10.73;;;;;;;6.10;94.74;97417.44;5049700;28;20720;-76
2023/03/02 01:49:09;;;;;;;20.40;10.80;;;;;;;6.04;93.68;97428.69;5028603;28;20206;-73
2023/03/02 01:52:03;;;;;;;18.63;10.53;;;;;;;6.02;94.36;97432.19;5044627;28;20214;-71
2023/03/02 01:54:30;;;;;;;19.40;10.20;;;;;;;5.98;93.61;97431.41;5049638;28;20207;-76
2023/03/02 01:57:03;;;;;;;15.80;9.80;;;;;;;5.93;94.00;97427.25;5030339;28;20672;-76
2023/03/02 01:59:33;;;;;;;19.83;11.80;;;;;;;5.89;94.24;97426.47;5031705;28;20216;-76
2023/03/02 02:02:05;;;;;;;16.67;9.33;;;;;;;5.96;93.35;97432.31;5048452;28;20604;-75
2023/03/02 02:04:36;;;;;;;19.53;10.93;;;;;;;6.01;94.83;97426.22;5031198;28;20323;-76
2023/03/02 02:07:06;;;;;;;20.17;9.77;;;;;;;6.01;92.86;97431.34;5031258;28;20669;-72
2023/03/02 02:09:37;;;;;;;17.30;9.43;;;;;;;5.97;94.00;97428.88;5048407;28;20733;-75
2023/03/02 02:12:11;;;;;;;14.43;9.20;;;;;;;5.97;93.73;97429.72;5014990;28;20196;-76
2023/03/02 02:14:38;;;;;;;20.30;10.73;;;;;;;5.99;93.79;97427.97;5029727;28;20196;-74
2023/03/02 02:17:05;;;;;;;18.40;10.17;;;;;;;5.88;94.38;97427.34;5049172;28;20186;-75
2023/03/02 02:20:06;;;;;;;17.97;9.73;;;;;;;5.96;94.40;97442.59;5030079;28;20239;-72
2023/03/02 02:22:48;;;;;;;21.10;11.33;;;;;;;5.79;94.85;97435.19;5005518;28;20635;-75
2023/03/02 02:25:31;;;;;;;20.90;10.37;;;;;;;5.66;95.04;97411.50;5031276;28;20272;-72
2023/03/02 02:27:58;;;;;;;19.60;11.50;;;;;;;5.63;96.15;97429.53;5047783;28;20583;-72
2023/03/02 02:30:26;;;;;;;21.23;11.47;;;;;;;5.59;96.52;97432.19;5048711;28;20196;-73
2023/03/02 02:32:56;;;;;;;20.90;11.40;;;;;;;5.58;96.78;97426.22;5048684;28;20277;-72
2023/03/02 02:35:29;;;;;;;19.83;10.60;;;;;;;5.76;96.46;97435.28;5047633;28;20268;-76
2023/03/02 02:38:03;;;;;;;20.37;10.67;;;;;;;5.71;95.03;97416.53;5031022;28;20191;-73
2023/03/02 02:41:00;;;;;;;25.87;11.83;;;;;;;5.93;95.99;97440.09;5013003;28;20192;-76
2023/03/02 02:43:31;;;;;;;26.10;12.53;;;;;;;5.78;96.21;97438.66;5030371;28;20200;-76
2023/03/02 02:46:00;;;;;;;25.70;12.50;;;;;;;5.66;96.67;97438.91;5048328;28;20229;-72
2023/03/02 02:48:30;;;;;;;27.07;12.60;;;;;;;5.69;96.63;97431.97;5029355;28;20195;-73
2023/03/02 02:50:59;;;;;;;25.33;12.63;;;;;;;5.46;97.28;97444.44;5030574;28;20299;-76
2023/03/02 02:53:34;;;;;;;26.60;13.03;;;;;;;5.50;97.21;97425.50;5047168;28;20663;-75
2023/03/02 02:56:03;;;;;;;21.07;11.90;;;;;;;5.58;95.70;97436.50;5048366;28;20190;-75
2023/03/02 02:58:36;;;;;;;22.57;12.17;;;;;;;5.59;96.65;97434.75;5029780;28;20199;-77
2023/03/02 03:01:04;;;;;;;20.33;11.40;;;;;;;5.53;95.88;97434.88;5029555;28;20844;-76
2023/03/02 03:03:36;;;;;;;21.80;12.00;;;;;;;5.46;95.58;97420.50;5040077;28;20205;-73
2023/03/02 03:06:12;;;;;;;26.53;13.20;;;;;;;5.47;96.96;97430.72;5068794;28;20229;-76
2023/03/02 03:08:42;;;;;;;24.43;12.77;;;;;;;5.40;96.06;97424.00;5070223;28;20226;-76
2023/03/02 03:11:18;;;;;;;23.87;12.03;;;;;;;5.43;97.51;97425.66;5066666;28;20580;-77
2023/03/02 03:13:45;;;;;;;23.73;12.43;;;;;;;5.37;96.93;97430.94;5049783;28;20187;-76
2023/03/02 03:16:14;;;;;;;25.37;12.23;;;;;;;5.41;97.17;97437.69;5031191;28;20204;-76
2023/03/02 03:18:45;;;;;;;26.20;13.87;;;;;;;5.23;97.83;97432.91;5028929;28;20199;-73
2023/03/02 03:21:13;;;;;;;21.10;11.50;;;;;;;5.17;98.18;97428.75;5031572;28;20255;-73
2023/03/02 03:23:40;;;;;;;25.00;12.97;;;;;;;5.24;98.52;97411.47;5086628;28;20278;-74
2023/03/02 03:26:07;;;;;;;24.50;11.97;;;;;;;5.30;98.09;97419.91;5069133;28;20225;-72
2023/03/02 03:28:34;;;;;;;26.67;11.97;;;;;;;5.14;98.77;97413.38;5068702;28;20725;-75
2023/03/02 03:31:03;;;;;;;27.23;12.67;;;;;;;5.24;98.85;97420.03;5069451;28;20216;-73
2023/03/02 03:33:30;;;;;;;26.37;13.03;;;;;;;5.30;99.28;97409.66;5087787;28;20194;-74
2023/03/02 03:35:59;;;;;;;28.10;13.03;;;;;;;5.28;98.71;97415.69;5068528;28;20198;-73
2023/03/02 03:38:28;;;;;;;26.57;12.60;;;;;;;5.25;98.85;97408.06;5087880;28;20677;-73
2023/03/02 03:40:55;;;;;;;23.77;12.13;;;;;;;5.44;98.03;97410.22;5068324;28;20188;-72
2023/03/02 03:43:22;;;;;;;28.43;12.23;;;;;;;5.49;98.24;97407.56;5069416;28;20194;-72
2023/03/02 03:45:52;;;;;;;28.57;12.37;;;;;;;5.57;97.34;97408.25;5068406;28;20226;-72
2023/03/02 03:48:19;;;;;;;24.30;12.23;;;;;;;5.59;97.64;97416.78;5069286;28;20670;-72
2023/03/02 03:50:48;;;;;;;23.17;12.03;;;;;;;5.48;96.80;97411.03;5052343;28;20602;-71
2023/03/02 03:53:15;;;;;;;22.83;11.80;;;;;;;5.55;96.79;97404.88;5086020;28;20301;-71
2023/03/02 03:55:43;;;;;;;19.73;11.27;;;;;;;5.74;96.10;97411.34;5069301;28;20192;-73
2023/03/02 03:58:10;;;;;;;20.63;11.57;;;;;;;5.75;96.45;97413.00;5068008;28;20187;-73
2023/03/02 04:00:38;;;;;;;18.90;10.77;;;;;;;5.79;95.15;97400.06;5069287;28;20265;-72
2023/03/02 04:03:08;;;;;;;21.30;12.60;;;;;;;5.91;95.97;97404.16;5068143;28;20248;-72
2023/03/02 04:05:35;;;;;;;18.30;11.33;;;;;;;6.02;95.03;97402.19;5068763;28;20245;-73
2023/03/02 04:08:04;;;;;;;18.67;11.27;;;;;;;6.05;94.83;97401.28;5052390;28;20196;-70
2023/03/02 04:10:31;;;;;;;21.87;12.17;;;;;;;6.09;94.92;97406.31;5068090;28;20225;-72
2023/03/02 04:12:59;;;;;;;20.47;11.13;;;;;;;6.05;94.71;97407.25;5069355;28;20191;-73
2023/03/02 04:15:27;;;;;;;19.97;12.63;;;;;;;5.95;94.97;97398.06;5062862;28;20269;-70
2023/03/02 04:17:55;;;;;;;21.57;12.47;;;;;;;5.96;94.45;97392.03;5048142;28;20203;-72
2023/03/02 04:20:24;;;;;;;21.37;12.80;;;;;;;5.91;94.49;97401.59;5049751;28;20227;-72
2023/03/02 04:22:54;;;;;;;21.87;12.93;;;;;;;5.96;95.40;97401.47;5060637;28;20605;-71
2023/03/02 04:25:24;;;;;;;19.87;12.17;;;;;;;6.01;94.56;97408.22;5045274;28;20215;-71
2023/03/02 04:27:54;;;;;;;22.13;11.80;;;;;;;5.86;94.28;97411.09;5046413;28;20195;-72
2023/03/02 04:30:25;;;;;;;23.97;12.07;;;;;;;5.89;95.03;97405.91;5046604;28;20724;-72
2023/03/02 04:32:56;;;;;;;23.57;12.37;;;;;;;5.83;95.35;97402.59;5047226;28;20307;-75
2023/03/02 04:35:26;;;;;;;25.07;13.90;;;;;;;5.87;94.84;97405.09;5046624;28;20435;-74
2023/03/02 04:37:53;;;;;;;27.63;15.07;;;;;;;5.84;95.34;97420.56;5016297;28;20202;-74
2023/03/02 04:40:20;;;;;;;28.13;15.33;;;;;;;5.77;95.58;97412.09;5050362;28;20845;-73
2023/03/02 04:42:47;;;;;;;28.13;14.07;;;;;;;5.87;95.57;97412.81;5067372;28;20227;-73
2023/03/02 04:45:15;;;;;;;30.23;15.93;;;;;;;5.85;95.42;97421.44;5069839;28;20636;-75
2023/03/02 04:47:42;;;;;;;29.13;16.27;;;;;;;5.81;95.70;97406.91;5066869;28;20193;-75
2023/03/02 04:50:11;;;;;;;28.17;14.13;;;;;;;5.81;96.07;97418.06;5069225;28;20218;-75
2023/03/02 04:52:39;;;;;;;26.80;14.90;;;;;;;5.74;96.26;97411.34;5070708;28;20196;-73
2023/03/02 04:55:07;;;;;;;26.30;15.23;;;;;;;5.62;95.97;97402.16;5034994;28;20245;-75
2023/03/02 04:57:34;;;;;;;29.93;15.60;;;;;;;5.87;96.40;97422.25;5062271;28;20196;-75
2023/03/02 05:00:01;;;;;;;29.43;16.63;;;;;;;5.85;95.92;97419.72;5069836;28;20667;-74
2023/03/02 05:02:30;;;;;;;30.97;18.37;;;;;;;5.82;94.66;97424.88;5068911;28;20198;-75
2023/03/02 05:04:57;;;;;;;26.23;14.97;;;;;;;5.57;96.01;97433.94;5051311;28;20286;-75
2023/03/02 05:07:24;;;;;;;26.23;14.53;;;;;;;5.66;97.34;97428.63;5069430;28;20200;-76
2023/03/02 05:09:51;;;;;;;26.90;13.77;;;;;;;5.77;95.74;97431.81;5070733;28;20199;-73
2023/03/02 05:12:20;;;;;;;22.23;12.70;;;;;;;5.73;95.95;97425.03;5051272;28;20207;-74
2023/03/02 05:14:47;;;;;;;27.63;14.90;;;;;;;5.88;96.38;97440.19;5072249;28;20262;-72
2023/03/02 05:17:15;;;;;;;27.97;15.50;;;;;;;5.75;96.79;97431.84;5073119;28;20194;-73
2023/03/02 05:19:42;;;;;;;29.90;14.90;;;;;;;5.81;96.20;97451.47;5089363;28;20227;-74
2023/03/02 05:22:09;;;;;;;26.47;14.10;;;;;;;5.85;96.64;97457.41;5072445;28;20255;-72
2023/03/02 05:24:36;;;;;;;23.43;13.07;;;;;;;5.69;97.46;97449.09;5088927;28;20217;-73
2023/03/02 05:27:04;;;;;;;27.73;13.67;;;;;;;5.68;96.60;97443.16;5072343;28;20573;-74
2023/03/02 05:29:31;;;;;;;26.57;13.00;;;;;;;5.52;97.59;97464.03;5070892;28;20195;-74
2023/03/02 05:31:58;;;;;;;30.33;14.07;;;;;;;5.44;97.73;97435.09;5088357;28;20181;-72
2023/03/02 05:34:25;;;;;;;23.67;13.47;;;;;;;5.50;97.44;97437.53;5089801;28;20195;-75
2023/03/02 05:36:52;;;;;;;25.33;13.93;;;;;;;5.53;97.82;97442.59;5088892;28;20197;-74
2023/03/02 05:39:19;;;;;;;27.13;14.63;;;;;;;5.67;98.50;97448.28;5089622;28;20328;-72
2023/03/02 05:41:46;;;;;;;30.10;16.17;;;;;;;5.71;96.83;97448.22;5070569;28;20795;-75
2023/03/02 05:44:13;;;;;;;28.37;15.57;;;;;;;5.81;96.69;97455.75;5090100;28;20191;-73
2023/03/02 05:46:40;;;;;;;26.70;15.03;;;;;;;5.70;97.22;97446.53;5070506;28;20298;-74
2023/03/02 05:49:07;;;;;;;25.83;14.30;;;;;;;5.82;97.04;97454.84;5088861;28;20656;-72
2023/03/02 05:51:34;;;;;;;27.70;14.37;;;;;;;5.64;97.50;97461.22;5070999;28;20196;-75
2023/03/02 05:54:01;;;;;;;27.37;12.97;;;;;;;5.47;98.28;97458.13;5070772;28;20215;-72
2023/03/02 05:56:29;;;;;;;33.20;16.67;;;;;;;5.66;97.53;97459.47;5089561;28;20182;-76
2023/03/02 05:58:56;;;;;;;33.00;16.27;;;;;;;5.62;97.05;97450.13;5088411;28;20269;-72
2023/03/02 06:01:23;;;;;;;41.60;18.70;;;;;;;5.54;98.14;97437.41;5089432;28;20192;-72
2023/03/02 06:03:50;;;;;;;34.87;17.17;;;;;;;5.45;99.51;97439.31;5069844;28;20291;-75
2023/03/02 06:06:17;;;;;;;31.30;14.70;;;;;;;5.49;99.35;97456.38;5071496;28;20587;-74
2023/03/02 06:08:44;;;;;;;28.43;14.00;;;;;;;5.37;100.00;97461.75;5088769;28;20529;-72
2023/03/02 06:11:12;;;;;;;29.77;15.40;;;;;;;5.30;100.00;97449.88;5070927;28;20192;-72
2023/03/02 06:13:39;;;;;;;29.50;16.17;;;;;;;5.34;100.00;97441.25;5088944;28;20304;-76
2023/03/02 06:16:07;;;;;;;33.53;13.87;;;;;;;5.23;100.00;97438.91;5088070;28;20186;-74
2023/03/02 06:18:35;;;;;;;30.60;14.97;;;;;;;5.40;100.00;97438.59;5071177;28;20200;-72
2023/03/02 06:21:03;;;;;;;33.93;14.93;;;;;;;5.48;100.00;97439.28;5069400;28;20219;-74
2023/03/02 06:23:30;;;;;;;25.87;14.00;;;;;;;5.28;100.00;97452.47;5070589;28;20260;-75
2023/03/02 06:25:57;;;;;;;29.77;15.37;;;;;;;5.58;99.75;97457.06;5069757;28;20226;-74
2023/03/02 06:28:25;;;;;;;39.17;19.57;;;;;;;5.68;98.62;97447.44;5070373;28;20183;-73
2023/03/02 06:30:52;;;;;;;31.73;16.20;;;;;;;5.85;98.57;97454.84;5088593;28;20203;-73
2023/03/02 06:33:20;;;;;;;29.30;14.40;;;;;;;5.85;97.80;97457.41;5069547;28;20683;-72
2023/03/02 06:35:48;;;;;;;27.47;13.07;;;;;;;5.87;98.03;97458.22;5088710;28;20190;-73
2023/03/02 06:38:15;;;;;;;22.13;11.80;;;;;;;5.78;97.06;97459.22;5069365;28;20746;-73
2023/03/02 06:40:43;;;;;;;21.80;11.57;;;;;;;5.68;98.03;97457.72;5070858;28;20201;-75
2023/03/02 06:43:10;;;;;;;26.60;12.77;;;;;;;5.85;98.30;97475.41;5069312;28;20680;-74
2023/03/02 06:45:37;;;;;;;23.47;12.17;;;;;;;5.69;97.67;97454.25;5088460;28;20223;-72
2023/03/02 06:48:05;;;;;;;23.00;13.07;;;;;;;5.69;97.94;97469.66;5070189;28;20680;-72
2023/03/02 06:50:33;;;;;;;24.60;12.73;;;;;;;5.68;98.50;97466.28;5087630;28;20712;-74
2023/03/02 06:53:00;;;;;;;26.27;13.03;;;;;;;5.54;98.71;97465.66;5088528;28;20190;-73
2023/03/02 06:55:27;;;;;;;28.23;12.20;;;;;;;5.66;98.57;97472.31;5068807;28;20282;-75
2023/03/02 06:57:54;;;;;;;26.23;12.90;;;;;;;5.58;97.95;97466.47;5070228;28;20195;-74
2023/03/02 07:00:26;;;;;;;27.17;13.17;;;;;;;5.64;98.82;97474.91;5086110;28;20205;-73
2023/03/02 07:02:55;;;;;;;29.00;12.93;;;;;;;5.64;98.54;97474.91;5087920;28;20200;-71
2023/03/02 07:05:23;;;;;;;33.33;12.83;;;;;;;5.16;100.00;97477.53;5070019;28;20239;-74
2023/03/02 07:07:51;;;;;;;26.50;13.43;;;;;;;5.19;100.00;97487.75;5069003;28;20214;-72
2023/03/02 07:10:18;;;;;;;28.77;12.87;;;;;;;5.03;100.00;97463.22;5088293;28;20351;-73
2023/03/02 07:12:45;;;;;;;29.03;14.20;;;;;;;5.14;100.00;97479.28;5086594;28;20646;-72
2023/03/02 07:15:13;;;;;;;25.90;14.13;;;;;;;5.18;99.97;97491.19;5088165;28;20193;-74
2023/03/02 07:17:42;;;;;;;39.03;19.20;;;;;;;5.22;100.00;97487.69;5068764;28;20268;-71
2023/03/02 07:20:12;;;;;;;34.60;18.17;;;;;;;5.29;100.00;97491.84;5087617;28;20233;-72
2023/03/02 07:22:40;;;;;;;39.57;17.03;;;;;;;5.23;100.00;97497.94;5069392;28;20670;-73
2023/03/02 07:25:08;;;;;;;38.73;17.03;;;;;;;5.08;100.00;97469.97;5087089;28;20197;-71
2023/03/02 07:27:36;;;;;;;34.60;14.57;;;;;;;4.85;100.00;97485.75;5069121;28;20285;-74
2023/03/02 07:30:04;;;;;;;37.83;16.20;;;;;;;5.02;100.00;97475.22;5068143;28;20195;-74
2023/03/02 07:32:32;;;;;;;38.50;16.77;;;;;;;5.06;100.00;97464.00;5087514;28;20193;-72
2023/03/02 07:34:59;;;;;;;47.17;17.10;;;;;;;5.16;100.00;97488.66;5086498;28;20753;-71
2023/03/02 07:37:26;;;;;;;37.77;16.33;;;;;;;5.24;100.00;97493.63;5087046;28;20191;-71
2023/03/02 07:39:53;;;;;;;52.13;17.77;;;;;;;5.19;100.00;97487.75;5068908;28;20642;-72
2023/03/02 07:42:20;;;;;;;41.70;19.53;;;;;;;5.25;100.00;97498.75;5067772;28;20660;-73
2023/03/02 07:44:52;;;;;;;48.90;17.20;;;;;;;5.28;100.00;97492.72;5052313;28;20650;-75
2023/03/02 07:47:20;;;;;;;36.57;18.13;;;;;;;5.29;100.00;97499.56;5067727;28;20211;-73
2023/03/02 07:49:48;;;;;;;62.20;18.13;;;;;;;4.85;100.00;97497.72;5052688;28;20201;-75
2023/03/02 07:52:15;;;;;;;45.13;19.80;;;;;;;4.95;100.00;97500.13;5085867;28;20349;-73
2023/03/02 07:54:42;;;;;;;48.63;20.50;;;;;;;4.91;100.00;97501.03;5051988;28;20203;-73
2023/03/02 07:57:09;;;;;;;48.47;19.57;;;;;;;5.01;100.00;97506.03;5068460;28;20191;-72
2023/03/02 07:59:36;;;;;;;45.17;19.30;;;;;;;5.05;100.00;97500.81;5085772;28;20180;-72
2023/03/02 08:02:03;;;;;;;37.40;17.13;;;;;;;4.95;100.00;97500.13;5069022;28;20214;-72
2023/03/02 08:04:30;;;;;;;32.77;17.90;;;;;;;4.99;100.00;97505.22;5085560;28;20619;-73
2023/03/02 08:06:57;;;;;;;43.97;24.50;;;;;;;5.15;100.00;97501.50;5068891;28;20217;-73
2023/03/02 08:09:26;;;;;;;38.37;16.47;;;;;;;5.26;100.00;97502.16;5068296;28;20680;-73
2023/03/02 08:11:53;;;;;;;37.63;17.90;;;;;;;5.30;100.00;97501.22;5086391;28;20194;-76
2023/03/02 08:14:20;;;;;;;33.97;15.73;;;;;;;5.23;100.00;97500.50;5086460;28;20241;-72
2023/03/02 08:16:47;;;;;;;29.73;14.47;;;;;;;5.42;100.00;97506.16;5085731;28;20571;-72
2023/03/02 08:19:14;;;;;;;27.47;13.50;;;;;;;5.25;100.00;97488.50;5068764;28;20202;-74
2023/03/02 08:21:43;;;;;;;27.80;14.47;;;;;;;5.26;100.00;97494.44;5085068;28;20733;-71
2023/03/02 08:24:11;;;;;;;33.63;15.20;;;;;;;5.45;100.00;97501.81;5051724;28;20637;-71
2023/03/02 08:26:38;;;;;;;28.37;13.00;;;;;;;5.42;99.29;97495.91;5084869;28;20215;-76
2023/03/02 08:29:06;;;;;;;34.73;16.67;;;;;;;5.57;99.61;97505.88;5068048;28;20190;-74
2023/03/02 08:31:33;;;;;;;33.33;16.30;;;;;;;5.60;99.00;97486.13;5067599;28;20224;-74
2023/03/02 08:34:01;;;;;;;33.43;17.97;;;;;;;5.51;98.26;97495.72;5085597;28;20272;-72
2023/03/02 08:36:28;;;;;;;26.20;14.20;;;;;;;5.49;97.85;97492.31;5068132;28;20258;-72
2023/03/02 08:38:56;;;;;;;32.27;15.13;;;;;;;5.45;98.35;97478.69;5067179;28;20669;-73
2023/03/02 08:41:23;;;;;;;31.07;14.93;;;;;;;5.31;98.70;97487.53;5068066;28;20197;-72
2023/03/02 08:43:53;;;;;;;31.30;17.30;;;;;;;5.38;98.25;97491.69;5066429;28;20185;-72
2023/03/02 08:46:21;;;;;;;59.13;34.70;;;;;;;5.51;98.55;97480.31;5067637;28;20777;-72
2023/03/02 08:48:50;;;;;;;39.50;21.83;;;;;;;5.42;98.40;97496.72;5085502;28;20625;-73
2023/03/02 08:51:20;;;;;;;47.83;24.60;;;;;;;5.52;97.48;97480.25;5067540;28;20194;-73
2023/03/02 08:53:49;;;;;;;33.53;19.10;;;;;;;5.62;96.94;97496.38;5086160;28;20719;-75
2023/03/02 08:56:21;;;;;;;25.27;14.67;;;;;;;5.59;96.54;97493.84;5049941;28;20606;-72
2023/03/02 08:58:49;;;;;;;24.83;13.30;;;;;;;5.79;97.04;97502.00;5068127;28;20681;-72
2023/03/02 09:01:19;;;;;;;29.77;14.33;;;;;;;5.90;95.98;97504.41;5050321;28;20972;-73
2023/03/02 09:03:47;;;;;;;31.23;15.83;;;;;;;5.63;96.73;97495.47;5067508;28;20198;-73
2023/03/02 09:06:14;;;;;;;30.53;16.53;;;;;;;5.68;96.41;97499.66;5067538;28;20317;-75
2023/03/02 09:08:42;;;;;;;29.83;16.83;;;;;;;5.43;96.98;97498.44;5085144;28;20281;-73
2023/03/02 09:11:09;;;;;;;27.37;14.33;;;;;;;5.24;98.73;97501.34;5086421;28;20187;-74
2023/03/02 09:13:37;;;;;;;28.03;14.07;;;;;;;5.43;98.62;97497.56;5084502;28;20292;-71
2023/03/02 09:16:05;;;;;;;33.33;16.53;;;;;;;5.59;98.23;97497.25;5085806;28;20265;-72
2023/03/02 09:18:32;;;;;;;30.07;15.40;;;;;;;5.58;97.89;97499.88;5066669;28;20186;-73
2023/03/02 09:20:59;;;;;;;30.90;13.93;;;;;;;5.55;97.29;97484.50;5067589;28;20229;-73
2023/03/02 09:23:28;;;;;;;27.47;14.27;;;;;;;5.66;96.46;97491.16;5086309;28;20193;-74
2023/03/02 09:25:55;;;;;;;25.60;14.03;;;;;;;5.63;96.80;97480.06;5089207;28;20756;-73
2023/03/02 09:28:23;;;;;;;29.27;15.00;;;;;;;5.73;96.96;97484.13;5071372;28;20190;-74
2023/03/02 09:30:52;;;;;;;26.60;12.83;;;;;;;5.36;96.60;97472.88;5070062;28;20191;-73
2023/03/02 09:33:20;;;;;;;23.90;12.53;;;;;;;5.35;97.74;97484.03;5089654;28;20650;-71
2023/03/02 09:35:47;;;;;;;26.37;13.10;;;;;;;5.52;97.11;97471.72;5070066;28;20630;-73
2023/03/02 09:38:17;;;;;;;27.87;12.23;;;;;;;5.49;96.79;97472.63;5089345;28;20238;-72
2023/03/02 09:41:08;;;;;;;25.67;14.10;;;;;;;5.55;96.38;97476.78;5070663;28;20194;-71
2023/03/02 09:44:00;;;;;;;31.77;16.03;;;;;;;5.60;96.43;97469.88;5087776;28;20195;-76
2023/03/02 09:46:48;;;;;;;30.33;14.87;;;;;;;5.38;97.49;97463.44;5089388;28;20223;-72
2023/03/02 09:49:35;;;;;;;30.43;16.90;;;;;;;5.30;98.70;97458.44;5069896;28;20198;-72
2023/03/02 09:52:33;;;;;;;32.70;18.10;;;;;;;5.34;98.30;97467.78;5070092;28;20630;-72
2023/03/02 09:55:18;;;;;;;35.17;19.00;;;;;;;5.61;97.52;97448.41;5054771;28;20186;-73
2023/03/02 09:57:46;;;;;;;32.93;17.13;;;;;;;5.60;96.88;97459.59;5088331;28;20561;-72
2023/03/02 10:00:26;;;;;;;36.20;18.10;;;;;;;5.73;96.47;97455.88;5088970;28;20190;-73
2023/03/02 10:03:06;;;;;;;38.90;19.77;;;;;;;5.39;96.32;97444.59;5088904;28;20262;-71
2023/03/02 10:05:48;;;;;;;30.07;16.43;;;;;;;5.68;96.03;97445.72;5069138;28;20213;-72
2023/03/02 10:08:29;;;;;;;33.23;16.67;;;;;;;5.54;96.02;97449.44;5088785;28;20639;-72
2023/03/02 10:11:25;;;;;;;34.80;17.73;;;;;;;5.61;96.65;97456.97;5052841;28;20268;-71
2023/03/02 10:14:02;;;;;;;34.43;18.53;;;;;;;5.53;97.10;97447.72;5051691;28;20202;-71
2023/03/02 10:16:48;;;;;;;32.30;17.03;;;;;;;5.37;98.15;97460.03;5070254;28;20227;-71
2023/03/02 10:19:28;;;;;;;34.17;16.47;;;;;;;5.54;96.93;97457.13;5087551;28;20182;-73
2023/03/02 10:22:32;;;;;;;34.63;17.00;;;;;;;5.69;97.47;97459.38;5088120;28;20210;-73
2023/03/02 10:25:28;;;;;;;31.77;17.53;;;;;;;5.79;96.32;97458.31;5088311;28;20276;-72
2023/03/02 10:28:14;;;;;;;39.83;18.77;;;;;;;5.85;95.93;97465.97;5069365;28;20232;-76
2023/03/02 10:30:44;;;;;;;34.03;17.60;;;;;;;5.72;96.21;97455.06;5088003;28;20196;-71
2023/03/02 10:33:15;;;;;;;40.33;20.43;;;;;;;5.65;95.14;97445.75;5070310;28;20594;-72
2023/03/02 10:35:47;;;;;;;40.63;19.83;;;;;;;5.73;95.99;97455.88;5086798;28;20609;-73
2023/03/02 10:38:18;;;;;;;33.23;17.10;;;;;;;5.78;95.80;97454.06;5088565;28;20261;-73
2023/03/02 10:40:47;;;;;;;40.03;19.77;;;;;;;5.79;95.61;97458.31;5069107;28;20572;-72
2023/03/02 10:43:20;;;;;;;35.40;18.23;;;;;;;5.86;95.20;97451.38;5088198;28;20194;-73
2023/03/02 10:45:59;;;;;;;37.20;17.97;;;;;;;5.77;95.95;97444.66;5084638;28;20201;-73
2023/03/02 10:48:26;;;;;;;36.70;18.63;;;;;;;5.46;96.46;97436.72;5067624;28;20196;-72
2023/03/02 10:50:56;;;;;;;32.03;17.00;;;;;;;5.46;96.59;97451.31;5070075;28;20755;-71
2023/03/02 10:53:24;;;;;;;37.17;18.53;;;;;;;5.58;96.57;97439.06;5068221;28;20193;-71
2023/03/02 10:55:52;;;;;;;32.93;16.10;;;;;;;5.59;95.47;97432.19;5053232;28;20227;-71
2023/03/02 10:58:31;;;;;;;35.90;17.73;;;;;;;5.54;97.01;97427.13;5087052;28;20187;-73
2023/03/02 11:01:04;;;;;;;34.87;17.60;;;;;;;5.63;95.38;97426.13;5069137;28;20216;-72
2023/03/02 11:03:32;;;;;;;33.07;16.13;;;;;;;5.74;96.08;97426.75;5053284;28;20638;-72
2023/03/02 11:06:16;;;;;;;36.83;18.00;;;;;;;5.82;95.69;97424.88;5086345;28;20209;-73
2023/03/02 11:08:43;;;;;;;33.63;17.67;;;;;;;5.49;97.80;97415.28;5087943;28;20298;-72
2023/03/02 11:11:22;;;;;;;31.17;16.60;;;;;;;5.53;96.90;97416.91;5068244;28;20191;-73
2023/03/02 11:13:49;;;;;;;41.97;19.90;;;;;;;5.42;98.69;97424.00;5052327;28;20189;-73
2023/03/02 11:16:16;;;;;;;40.23;18.37;;;;;;;5.55;97.37;97420.28;5087375;28;20701;-72
2023/03/02 11:18:48;;;;;;;43.93;21.87;;;;;;;5.63;97.71;97421.84;5086442;28;20189;-72
2023/03/02 11:21:28;;;;;;;40.57;19.90;;;;;;;5.64;96.92;97423.53;5087608;28;20229;-74
2023/03/02 11:24:03;;;;;;;39.03;18.00;;;;;;;5.57;97.54;97426.25;5067609;28;20694;-72
2023/03/02 11:26:37;;;;;;;33.50;15.63;;;;;;;5.54;97.24;97419.44;5087037;28;20791;-71
2023/03/02 11:29:10;;;;;;;32.83;17.17;;;;;;;5.36;97.95;97417.22;5087306;28;20210;-73
2023/03/02 11:32:24;;;;;;;34.47;18.07;;;;;;;5.08;97.51;97367.31;5086270;28;20187;-73
2023/03/02 11:35:00;;;;;;;31.33;16.07;;;;;;;5.62;96.84;97421.88;4993467;28;20197;-72
2023/03/02 11:37:53;;;;;;;28.47;15.20;;;;;;;5.63;95.89;97423.53;5086793;28;20194;-72
2023/03/02 11:40:29;;;;;;;25.87;14.47;;;;;;;5.48;96.70;97422.13;5068208;28;20287;-73